Time;durP1;ratioP1;P1;durP2;ratioP2;P2;SDS_P1;SDS_P2;PMS_P1;PMS_P2;Temp;Humidity;BMP_temperature;BMP_pressure;BME280_temperature;BME280_humidity;BME280_pressure;Samples;Min_cycle;Max_cycle;Signal;HPM_P1;HPM_P2
2023/07/31 00:01:58;;;;;;;;;2.00;2.00;;;;;22.05;52.71;101069.22;5036377;28;45338;-70
2023/07/31 00:04:24;;;;;;;;;3.00;2.25;;;;;21.89;52.96;101050.69;5018468;28;45573;-70
2023/07/31 00:06:49;;;;;;;;;1.50;1.50;;;;;22.28;52.94;101128.34;5036406;28;46544;-70
2023/07/31 00:09:14;;;;;;;;;4.33;3.00;;;;;22.26;53.02;101111.47;5035020;28;48168;-71
2023/07/31 00:11:39;;;;;;;;;2.67;2.67;;;;;22.24;52.98;101099.19;5018104;28;47707;-70
2023/07/31 00:14:05;;;;;;;;;2.67;2.00;;;;;22.24;53.15;101102.72;5035691;28;51806;-69
2023/07/31 00:16:30;;;;;;;;;1.75;1.75;;;;;22.26;53.35;101114.19;5036464;28;45332;-71
2023/07/31 00:18:55;;;;;;;;;1.50;1.50;;;;;22.27;53.00;101109.59;5036681;28;45274;-71
2023/07/31 00:21:21;;;;;;;;;3.00;2.33;;;;;22.24;53.12;101107.31;5036212;28;46622;-70
2023/07/31 00:23:46;;;;;;;;;3.25;2.00;;;;;22.27;53.61;101110.44;5036205;28;45257;-71
2023/07/31 00:26:11;;;;;;;;;3.00;3.00;;;;;22.28;53.71;101113.97;5036229;28;45294;-70
2023/07/31 00:28:37;;;;;;;;;3.00;3.00;;;;;22.24;53.32;101089.19;5036114;28;45222;-70
2023/07/31 00:31:03;;;;;;;;;3.00;2.75;;;;;22.11;53.31;101083.78;5038196;28;45714;-71
2023/07/31 00:33:29;;;;;;;;;3.00;3.00;;;;;21.88;53.52;101034.66;5039666;28;45499;-71
2023/07/31 00:35:54;;;;;;;;;2.00;1.75;;;;;22.23;53.68;101086.69;5039640;28;45521;-71
2023/07/31 00:38:20;;;;;;;;;4.00;2.25;;;;;22.17;53.67;101077.50;5039461;28;45190;-71
2023/07/31 00:40:45;;;;;;;;;2.00;2.00;;;;;22.24;53.47;101088.34;5038467;28;70482;-71
2023/07/31 00:43:10;;;;;;;;;2.00;2.00;;;;;22.19;53.85;101080.84;5039273;28;45290;-70
2023/07/31 00:45:36;;;;;;;;;2.00;2.00;;;;;22.00;53.60;101054.59;5039526;28;45459;-70
2023/07/31 00:48:02;;;;;;;;;3.67;2.67;;;;;22.01;53.45;101062.50;5039579;28;45556;-71
2023/07/31 00:50:28;;;;;;;;;2.00;2.00;;;;;22.13;53.92;101087.94;5037910;28;45677;-69
2023/07/31 00:52:54;;;;;;;;;1.67;1.33;;;;;21.97;53.86;101068.56;5039232;28;45526;-70
2023/07/31 00:55:21;;;;;;;;;3.67;2.67;;;;;22.02;53.75;101085.84;5039427;28;45590;-70
2023/07/31 00:57:48;;;;;;;;;2.00;1.00;;;;;22.09;53.80;101084.00;5021386;28;45660;-70
2023/07/31 01:00:13;;;;;;;;;2.00;2.00;;;;;21.99;53.87;101063.78;5039340;28;46554;-70
2023/07/31 01:02:39;;;;;;;;;1.67;1.67;;;;;21.80;53.64;101022.16;5039273;28;45302;-70
2023/07/31 01:05:05;;;;;;;;;3.00;3.00;;;;;22.06;53.88;101070.88;5037934;28;45460;-70
2023/07/31 01:07:33;;;;;;;;;2.75;1.25;;;;;22.01;53.91;101069.81;5039481;28;45210;-70
2023/07/31 01:10:15;;;;;;;;;1.50;1.25;;;;;22.04;53.99;101072.97;5038824;28;45825;-70
2023/07/31 01:12:41;;;;;;;;;3.25;2.25;;;;;22.07;54.20;101075.25;5038430;28;45511;-70
2023/07/31 01:15:11;;;;;;;;;3.75;3.75;;;;;22.02;53.83;101052.50;5039243;28;45333;-69
2023/07/31 01:17:38;;;;;;;;;2.75;2.75;;;;;22.07;53.93;101044.66;5039322;28;45383;-69
2023/07/31 01:20:08;;;;;;;;;4.00;2.67;;;;;22.04;53.88;101045.91;5038955;28;46499;-71
2023/07/31 01:22:55;;;;;;;;;1.00;1.00;;;;;21.71;54.07;100999.91;5038942;28;45371;-71
2023/07/31 01:25:41;;;;;;;;;1.00;1.00;;;;;21.97;53.96;101039.63;5038971;28;45340;-71
2023/07/31 01:28:13;;;;;;;;;3.00;3.00;;;;;21.88;53.76;101021.94;5038988;28;45478;-71
2023/07/31 01:30:43;;;;;;;;;2.50;2.50;;;;;21.87;53.55;101025.69;5038682;28;45657;-71
2023/07/31 01:33:09;;;;;;;;;1.00;1.00;;;;;21.60;53.66;100965.38;5020841;28;45502;-71
2023/07/31 01:35:35;;;;;;;;;5.00;3.00;;;;;21.90;53.80;101027.97;5039082;28;45288;-70
2023/07/31 01:38:01;;;;;;;;;3.00;1.33;;;;;21.91;53.50;101036.94;5038954;28;45503;-70
2023/07/31 01:40:26;;;;;;;;;2.67;2.00;;;;;21.85;53.89;101030.50;5038597;28;46737;-70
2023/07/31 01:42:51;;;;;;;;;4.00;2.00;;;;;21.89;53.75;101031.72;5035604;28;59023;-71
2023/07/31 01:45:17;;;;;;;;;3.00;2.00;;;;;21.93;53.38;101045.69;5038225;28;51198;-70
2023/07/31 01:47:42;;;;;;;;;2.00;2.00;;;;;21.89;53.44;101029.03;5038814;28;45285;-71
2023/07/31 01:50:08;;;;;;;;;3.67;2.00;;;;;21.87;53.70;101017.59;5038359;28;45589;-71
2023/07/31 01:52:33;;;;;;;;;1.33;1.00;;;;;21.85;53.48;101008.84;5038616;28;45362;-70
2023/07/31 01:54:59;;;;;;;;;4.67;2.67;;;;;21.71;53.63;101001.78;5038412;28;45305;-70
2023/07/31 01:57:24;;;;;;;;;2.00;2.00;;;;;21.89;53.72;101039.03;5038520;28;45408;-70
2023/07/31 01:59:49;;;;;;;;;2.00;2.00;;;;;21.87;53.44;101028.41;5037833;28;56776;-71
2023/07/31 02:02:16;;;;;;;;;1.00;1.00;;;;;21.68;53.51;101007.63;5038160;28;45376;-71
2023/07/31 02:04:41;;;;;;;;;3.00;3.00;;;;;21.81;53.60;101042.75;5038577;28;45337;-70
2023/07/31 02:07:06;;;;;;;;;1.75;1.75;;;;;21.42;53.50;100966.00;5038308;28;45555;-70
2023/07/31 02:09:32;;;;;;;;;2.00;2.00;;;;;21.37;53.61;100957.69;5038181;28;46439;-70
2023/07/31 02:11:57;;;;;;;;;3.00;1.67;;;;;21.75;53.49;101035.50;5038075;28;45313;-70
2023/07/31 02:14:22;;;;;;;;;1.00;1.00;;;;;21.77;53.61;101034.25;5037833;28;45360;-70
2023/07/31 02:16:48;;;;;;;;;2.33;2.33;;;;;21.09;53.05;100911.09;5038456;28;45489;-70
2023/07/31 02:19:13;;;;;;;;;2.00;1.00;;;;;21.78;53.10;101018.84;5037454;28;57231;-70
2023/07/31 02:21:38;;;;;;;;;2.25;1.25;;;;;21.72;53.31;101003.44;5037654;28;50867;-70
2023/07/31 02:24:04;;;;;;;;;1.00;1.00;;;;;21.35;53.33;100962.50;5038100;28;45472;-70
2023/07/31 02:26:29;;;;;;;;;2.25;2.00;;;;;21.68;53.55;101010.31;5038134;28;45319;-70
2023/07/31 02:28:54;;;;;;;;;2.00;1.00;;;;;21.63;53.17;101004.72;5037517;28;45321;-70
2023/07/31 02:31:20;;;;;;;;;2.00;2.00;;;;;21.68;53.16;101018.44;5037749;28;45446;-70
2023/07/31 02:33:45;;;;;;;;;0.75;0.00;;;;;21.66;53.54;101010.53;5038109;28;45181;-70
2023/07/31 02:36:10;;;;;;;;;1.00;1.00;;;;;21.58;53.23;100989.09;5038137;28;45396;-71
2023/07/31 02:38:36;;;;;;;;;1.75;1.75;;;;;21.67;53.35;101001.38;5037629;28;46270;-70
2023/07/31 02:41:01;;;;;;;;;2.00;2.00;;;;;21.59;53.30;100992.63;5037625;28;45464;-70
2023/07/31 02:43:27;;;;;;;;;1.50;1.50;;;;;21.66;53.17;100983.47;5037690;28;45317;-71
2023/07/31 02:45:53;;;;;;;;;3.00;1.00;;;;;21.56;53.02;100966.84;5037924;28;45289;-70
2023/07/31 02:48:19;;;;;;;;;1.00;1.00;;;;;21.65;53.14;100975.56;5037549;28;45715;-70
2023/07/31 02:50:45;;;;;;;;;2.75;1.75;;;;;21.60;53.19;100978.06;5037745;28;45315;-70
2023/07/31 02:53:10;;;;;;;;;0.00;0.00;;;;;21.66;52.96;100988.06;5037495;28;45419;-70
2023/07/31 02:55:36;;;;;;;;;1.00;1.00;;;;;21.60;52.54;100968.06;5037871;28;45602;-70
2023/07/31 02:58:01;;;;;;;;;1.50;1.00;;;;;21.62;52.95;100984.09;5018984;28;55591;-71
2023/07/31 03:00:26;;;;;;;;;2.00;1.00;;;;;21.60;52.74;100962.66;5036754;28;62029;-71
2023/07/31 03:02:51;;;;;;;;;1.00;1.00;;;;;21.54;52.71;100967.03;5037766;28;45303;-71
2023/07/31 03:05:17;;;;;;;;;1.50;1.50;;;;;21.53;52.72;100961.84;5037734;28;45475;-71
2023/07/31 03:07:42;;;;;;;;;1.33;1.33;;;;;21.45;52.96;100954.78;5037370;28;45546;-71
2023/07/31 03:10:08;;;;;;;;;1.00;1.00;;;;;21.52;53.39;100971.84;5037405;28;45276;-72
2023/07/31 03:12:33;;;;;;;;;0.50;0.50;;;;;21.43;53.08;100953.34;5036962;28;45479;-71
2023/07/31 03:14:58;;;;;;;;;1.50;0.00;;;;;21.15;53.26;100921.06;5037222;28;46300;-72
2023/07/31 03:17:24;;;;;;;;;2.25;1.25;;;;;21.45;53.05;100976.44;5019722;28;46709;-70
2023/07/31 03:19:49;;;;;;;;;1.00;1.00;;;;;21.45;53.04;100987.25;5037137;28;45412;-70
2023/07/31 03:22:14;;;;;;;;;2.75;2.00;;;;;21.47;53.32;100979.75;5037435;28;45660;-70
2023/07/31 03:24:40;;;;;;;;;2.00;2.00;;;;;21.47;52.98;100974.34;5037459;28;45462;-70
2023/07/31 03:27:05;;;;;;;;;3.00;1.25;;;;;21.36;53.09;100963.31;5036655;28;46471;-70
2023/07/31 03:29:31;;;;;;;;;3.00;2.00;;;;;21.40;53.22;100949.16;5035747;28;45388;-70
2023/07/31 03:31:56;;;;;;;;;3.00;2.00;;;;;21.34;53.24;100963.53;5037131;28;45277;-71
2023/07/31 03:34:22;;;;;;;;;1.75;1.00;;;;;21.29;53.47;100960.63;5037415;28;45275;-71
2023/07/31 03:36:47;;;;;;;;;1.75;1.75;;;;;21.30;53.23;100967.69;5036794;28;46624;-71
2023/07/31 03:39:13;;;;;;;;;2.50;1.25;;;;;21.34;53.58;100968.94;5036370;28;54789;-71
2023/07/31 03:41:38;;;;;;;;;1.00;1.00;;;;;21.26;53.42;100939.41;5037115;28;45414;-71
2023/07/31 03:44:03;;;;;;;;;1.25;1.00;;;;;21.20;53.18;100934.78;5036924;28;45403;-69
2023/07/31 03:46:29;;;;;;;;;0.75;0.75;;;;;21.34;53.16;100962.69;5036612;28;46731;-70
2023/07/31 03:48:54;;;;;;;;;3.25;2.25;;;;;21.39;53.48;100971.00;5037045;28;46191;-71
2023/07/31 03:51:19;;;;;;;;;2.00;2.00;;;;;21.34;53.22;100960.81;5036945;28;45281;-71
2023/07/31 03:53:45;;;;;;;;;1.25;1.00;;;;;21.32;53.00;100960.22;5037127;28;45494;-71
2023/07/31 03:56:11;;;;;;;;;3.50;1.50;;;;;21.30;52.88;100956.88;5036865;28;45566;-69
2023/07/31 03:58:36;;;;;;;;;1.00;1.00;;;;;21.19;52.95;100933.13;5036627;28;45589;-71
2023/07/31 04:01:03;;;;;;;;;1.00;1.00;;;;;21.14;52.80;100935.63;5037038;28;45412;-72
2023/07/31 04:03:28;;;;;;;;;1.75;1.75;;;;;21.19;52.22;100935.84;5036764;28;45194;-70
2023/07/31 04:05:55;;;;;;;;;0.50;0.50;;;;;21.01;52.27;100930.22;5038259;28;45513;-70
2023/07/31 04:08:21;;;;;;;;;0.75;0.75;;;;;21.05;52.54;100934.19;5039637;28;45350;-70
2023/07/31 04:10:47;;;;;;;;;1.75;1.00;;;;;21.10;52.50;100931.69;5040214;28;45261;-70
2023/07/31 04:13:12;;;;;;;;;1.00;1.00;;;;;21.10;52.07;100926.28;5038498;28;45637;-70
2023/07/31 04:15:38;;;;;;;;;2.00;1.00;;;;;21.14;52.18;100950.00;5021595;28;46652;-69
2023/07/31 04:18:04;;;;;;;;;1.75;1.00;;;;;21.12;52.48;100940.44;5039827;28;45435;-70
2023/07/31 04:20:29;;;;;;;;;1.00;1.00;;;;;20.73;52.24;100879.09;5039970;28;45343;-71
2023/07/31 04:22:54;;;;;;;;;2.00;2.00;;;;;20.99;52.50;100927.72;5039402;28;56715;-70
2023/07/31 04:25:20;;;;;;;;;1.25;1.00;;;;;20.99;52.16;100933.13;5039764;28;45704;-70
2023/07/31 04:27:45;;;;;;;;;2.00;1.00;;;;;21.09;52.00;100951.66;5039415;28;45300;-70
2023/07/31 04:30:10;;;;;;;;;1.00;1.00;;;;;21.08;52.41;100947.28;5039599;28;45459;-71
2023/07/31 04:32:36;;;;;;;;;1.25;1.25;;;;;21.01;52.36;100944.56;5040021;28;45302;-70
2023/07/31 04:35:02;;;;;;;;;2.00;2.00;;;;;21.05;52.54;100945.84;5039618;28;46274;-71
2023/07/31 04:37:27;;;;;;;;;2.75;1.75;;;;;20.98;52.01;100927.94;5039438;28;45444;-71
2023/07/31 04:39:53;;;;;;;;;4.00;3.00;;;;;21.00;52.48;100934.78;5021737;28;45753;-70
2023/07/31 04:42:18;;;;;;;;;0.50;0.50;;;;;21.04;52.48;100937.94;5039531;28;45274;-70
2023/07/31 04:44:43;;;;;;;;;1.00;1.00;;;;;21.07;52.39;100945.63;5039527;28;46133;-71
2023/07/31 04:47:09;;;;;;;;;5.00;2.00;;;;;20.87;52.29;100911.31;5038287;28;45439;-70
2023/07/31 04:49:34;;;;;;;;;3.00;2.67;;;;;21.00;53.26;100942.06;5039491;28;45514;-70
2023/07/31 04:51:59;;;;;;;;;3.67;1.67;;;;;21.08;53.41;100953.53;5039756;28;45266;-70
2023/07/31 04:54:25;;;;;;;;;3.00;3.00;;;;;21.03;53.24;100953.31;5039223;28;46024;-71
2023/07/31 04:56:50;;;;;;;;;2.00;1.00;;;;;20.99;53.32;100943.13;5039284;28;45310;-70
2023/07/31 04:59:16;;;;;;;;;1.75;1.75;;;;;20.98;53.49;100942.28;5039257;28;45394;-70
2023/07/31 05:01:41;;;;;;;;;5.00;3.75;;;;;21.09;52.84;100957.06;5038025;28;45355;-71
2023/07/31 05:04:06;;;;;;;;;3.75;3.75;;;;;20.78;52.75;100909.00;5037715;28;46957;-71
2023/07/31 05:06:32;;;;;;;;;3.50;2.50;;;;;21.05;52.68;100942.31;5039112;28;45254;-70
2023/07/31 05:08:58;;;;;;;;;1.50;1.50;;;;;21.11;53.30;100946.88;5039053;28;45595;-71
2023/07/31 05:11:23;;;;;;;;;8.67;4.67;;;;;21.13;52.88;100950.19;5039187;28;45605;-70
2023/07/31 05:13:48;;;;;;;;;2.75;2.75;;;;;20.65;52.95;100894.47;5022834;28;47028;-70
2023/07/31 05:16:14;;;;;;;;;7.25;4.25;;;;;20.90;53.29;100935.22;4998266;28;45310;-71
2023/07/31 05:18:39;;;;;;;;;1.50;1.50;;;;;21.02;53.31;100942.69;4998745;28;45331;-71
2023/07/31 05:21:04;;;;;;;;;2.33;2.33;;;;;20.96;53.61;100934.38;4999531;28;45242;-70
2023/07/31 05:23:32;;;;;;;;;2.33;2.33;;;;;20.99;53.56;100948.53;4997686;28;48727;-72
2023/07/31 05:26:06;;;;;;;;;6.00;5.00;;;;;21.01;54.01;100952.69;4999195;28;45310;-70
2023/07/31 05:28:31;;;;;;;;;5.00;3.00;;;;;21.00;54.16;100933.97;4998363;28;45475;-73
2023/07/31 05:31:01;;;;;;;;;3.00;3.00;;;;;21.01;53.53;100941.03;4999287;28;45421;-71
2023/07/31 05:33:26;;;;;;;;;3.00;3.00;;;;;20.82;53.95;100924.63;4998943;28;46992;-71
2023/07/31 05:35:52;;;;;;;;;3.00;2.00;;;;;20.95;54.34;100937.28;5013983;28;45650;-70
2023/07/31 05:38:17;;;;;;;;;4.00;4.00;;;;;20.86;54.84;100925.88;4999038;28;45341;-71
2023/07/31 05:40:43;;;;;;;;;4.33;3.00;;;;;20.81;54.84;100917.53;4997862;28;45330;-71
2023/07/31 05:43:09;;;;;;;;;2.00;2.00;;;;;20.84;55.56;100938.75;4998155;28;46612;-71
2023/07/31 05:45:34;;;;;;;;;3.00;3.00;;;;;20.76;55.44;100913.78;4998723;28;45385;-71
2023/07/31 05:48:00;;;;;;;;;4.00;4.00;;;;;20.50;55.36;100863.28;4997324;28;45450;-71
2023/07/31 05:50:25;;;;;;;;;3.50;2.00;;;;;20.75;55.32;100901.31;4999047;28;46459;-69
2023/07/31 05:52:51;;;;;;;;;3.00;2.00;;;;;20.45;56.07;100852.28;4998545;28;46378;-71
2023/07/31 05:55:16;;;;;;;;;4.00;4.00;;;;;20.84;55.77;100913.59;4998478;28;45451;-70
2023/07/31 05:57:42;;;;;;;;;2.33;2.33;;;;;20.89;56.16;100914.66;4998590;28;45800;-72
2023/07/31 06:00:08;;;;;;;;;3.33;2.67;;;;;20.80;55.96;100901.53;4998845;28;45349;-71
2023/07/31 06:02:36;;;;;;;;;7.00;3.00;;;;;20.94;56.25;100901.34;4998459;28;45966;-71
2023/07/31 06:05:02;;;;;;;;;3.67;3.00;;;;;20.86;56.13;100879.94;4998396;28;45242;-70
2023/07/31 06:07:27;;;;;;;;;4.67;4.67;;;;;20.93;56.45;100891.56;4998560;28;45470;-71
2023/07/31 06:09:54;;;;;;;;;5.00;5.00;;;;;20.96;56.13;100891.13;5013914;28;45602;-71
2023/07/31 06:12:20;;;;;;;;;3.67;3.67;;;;;21.03;56.33;100887.63;4997875;28;47017;-71
2023/07/31 06:14:45;;;;;;;;;5.33;4.67;;;;;20.98;56.55;100890.94;5035924;28;45357;-70
2023/07/31 06:17:10;;;;;;;;;6.00;4.33;;;;;21.04;56.85;100902.81;5037639;28;45407;-71
2023/07/31 06:19:36;;;;;;;;;5.33;5.00;;;;;20.99;57.05;100899.88;5038422;28;45304;-71
2023/07/31 06:22:01;;;;;;;;;4.00;4.00;;;;;20.98;57.15;100890.09;5037741;28;45579;-71
2023/07/31 06:24:28;;;;;;;;;5.00;5.00;;;;;20.96;56.66;100872.22;5037832;28;45276;-71
2023/07/31 06:26:53;;;;;;;;;6.33;5.67;;;;;21.08;57.10;100877.84;5037845;28;45285;-70
2023/07/31 06:29:19;;;;;;;;;2.67;2.33;;;;;20.79;56.95;100825.03;5037681;28;45452;-71
2023/07/31 06:31:44;;;;;;;;;5.67;4.67;;;;;21.18;56.91;100889.03;5037899;28;46170;-70
2023/07/31 06:34:09;;;;;;;;;6.67;6.33;;;;;21.11;57.08;100865.78;5037711;28;45543;-71
2023/07/31 06:36:35;;;;;;;;;6.00;4.67;;;;;21.18;56.75;100888.22;5037939;28;45336;-70
2023/07/31 06:39:00;;;;;;;;;6.00;5.00;;;;;21.27;56.96;100900.50;5036585;28;45531;-71
2023/07/31 06:41:25;;;;;;;;;4.00;4.00;;;;;21.29;57.22;100898.44;5037554;28;46577;-69
2023/07/31 06:43:51;;;;;;;;;5.67;5.67;;;;;21.18;56.89;100883.63;5037394;28;45352;-70
2023/07/31 06:46:16;;;;;;;;;4.67;3.67;;;;;21.23;57.29;100897.38;5037369;28;45362;-71
2023/07/31 06:48:41;;;;;;;;;5.67;4.00;;;;;21.22;57.63;100901.13;5037613;28;45500;-72
2023/07/31 06:51:07;;;;;;;;;4.33;4.33;;;;;21.19;57.40;100896.09;5037205;28;45618;-71
2023/07/31 06:53:32;;;;;;;;;5.33;5.33;;;;;21.22;57.36;100905.66;5037332;28;45465;-71
2023/07/31 06:55:57;;;;;;;;;6.33;6.33;;;;;21.23;57.34;100902.78;5037536;28;45337;-70
2023/07/31 06:58:23;;;;;;;;;5.33;4.00;;;;;21.03;57.66;100868.69;5037577;28;45226;-71
2023/07/31 07:00:49;;;;;;;;;6.00;3.67;;;;;21.23;57.98;100901.97;5037418;28;45902;-70
2023/07/31 07:03:18;;;;;;;;;6.00;6.00;;;;;21.19;57.81;100900.69;5037232;28;45436;-71
2023/07/31 07:05:43;;;;;;;;;8.67;7.33;;;;;21.28;57.64;100904.88;5037187;28;45285;-70
2023/07/31 07:08:10;;;;;;;;;3.00;3.00;;;;;20.50;57.66;100772.28;5036983;28;45656;-72
2023/07/31 07:10:35;;;;;;;;;4.67;3.33;;;;;21.26;57.74;100885.34;5037082;28;45740;-71
2023/07/31 07:13:00;;;;;;;;;4.00;4.00;;;;;21.32;57.73;100889.91;5037001;28;45249;-70
2023/07/31 07:15:26;;;;;;;;;6.00;4.00;;;;;21.32;58.08;100889.91;5037199;28;45211;-70
2023/07/31 07:17:51;;;;;;;;;8.00;5.67;;;;;21.34;57.65;100892.38;5037035;28;45607;-72
2023/07/31 07:20:17;;;;;;;;;8.00;6.33;;;;;21.25;58.02;100886.38;5036825;28;45776;-71
2023/07/31 07:22:45;;;;;;;;;4.33;3.67;;;;;21.06;58.16;100839.38;5036793;28;45508;-71
2023/07/31 07:25:10;;;;;;;;;5.67;4.33;;;;;21.36;57.98;100877.59;5035779;28;45447;-71
2023/07/31 07:27:36;;;;;;;;;3.00;3.00;;;;;21.44;57.63;100876.56;5036923;28;45316;-71
2023/07/31 07:30:01;;;;;;;;;6.00;4.00;;;;;21.52;57.39;100885.28;5037070;28;45833;-70
2023/07/31 07:32:27;;;;;;;;;7.00;6.00;;;;;21.52;57.28;100863.63;5036645;28;45535;-70
2023/07/31 07:34:52;;;;;;;;;8.33;6.33;;;;;21.41;56.74;100853.44;5037222;28;45385;-71
2023/07/31 07:37:17;;;;;;;;;8.00;4.33;;;;;21.50;56.89;100859.47;5019125;28;45348;-72
2023/07/31 07:39:43;;;;;;;;;5.00;5.00;;;;;21.65;56.99;100875.47;5017763;28;47518;-71
2023/07/31 07:42:08;;;;;;;;;5.00;3.33;;;;;21.65;56.91;100870.88;5018529;28;46470;-70
2023/07/31 07:44:33;;;;;;;;;5.00;5.00;;;;;21.65;56.78;100856.53;5036908;28;45232;-70
2023/07/31 07:46:59;;;;;;;;;5.00;4.00;;;;;21.85;56.51;100868.94;5036674;28;45226;-70
2023/07/31 07:49:24;;;;;;;;;13.00;7.00;;;;;21.92;56.61;100868.88;5036725;28;46529;-71
2023/07/31 07:51:49;;;;;;;;;5.67;5.67;;;;;21.97;56.56;100866.34;5036302;28;56348;-71
2023/07/31 07:54:16;;;;;;;;;7.00;6.00;;;;;22.19;55.86;100863.34;5036939;28;45459;-70
2023/07/31 07:56:42;;;;;;;;;5.33;3.67;;;;;22.07;55.18;100839.69;5036914;28;45221;-70
2023/07/31 07:59:08;;;;;;;;;4.33;4.33;;;;;22.19;55.22;100864.19;5036242;28;46767;-70
2023/07/31 08:01:33;;;;;;;;;6.33;4.00;;;;;21.95;54.80;100816.19;5036655;28;45426;-71
2023/07/31 08:03:59;;;;;;;;;4.33;4.00;;;;;22.16;55.13;100846.50;5036550;28;45401;-72
2023/07/31 08:06:25;;;;;;;;;7.25;4.50;;;;;22.24;54.25;100848.13;5036788;28;45672;-70
2023/07/31 08:08:50;;;;;;;;;5.67;4.33;;;;;22.28;54.64;100837.69;5018265;28;47645;-71
2023/07/31 08:11:15;;;;;;;;;6.75;6.00;;;;;22.33;54.52;100835.16;5036180;28;58479;-70
2023/07/31 08:13:41;;;;;;;;;8.00;6.00;;;;;22.44;54.00;100845.28;5034734;28;45380;-72
2023/07/31 08:16:06;;;;;;;;;3.67;3.67;;;;;22.53;53.68;100838.53;5036511;28;45333;-71
2023/07/31 08:18:32;;;;;;;;;6.67;5.00;;;;;22.59;53.83;100843.06;5036142;28;46740;-70
2023/07/31 08:20:57;;;;;;;;;4.00;3.67;;;;;22.61;53.42;100840.97;5036147;28;45194;-71
2023/07/31 08:23:23;;;;;;;;;7.00;5.00;;;;;22.62;53.43;100848.03;5036542;28;45404;-72
2023/07/31 08:25:50;;;;;;;;;11.00;9.00;;;;;22.61;53.42;100859.94;5036513;28;45481;-70
2023/07/31 08:28:16;;;;;;;;;6.00;5.00;;;;;22.45;53.55;100831.53;5035896;28;46516;-70
2023/07/31 08:30:42;;;;;;;;;5.00;4.00;;;;;22.19;53.11;100782.94;5036019;28;45511;-70
2023/07/31 08:33:07;;;;;;;;;5.67;4.00;;;;;21.93;53.01;100718.97;5036090;28;45502;-70
2023/07/31 08:35:33;;;;;;;;;4.00;4.00;;;;;22.72;52.82;100839.44;5035155;28;45294;-70
2023/07/31 08:37:59;;;;;;;;;3.33;3.33;;;;;22.65;52.88;100801.56;5036075;28;46487;-70
2023/07/31 08:40:24;;;;;;;;;7.00;4.00;;;;;22.86;53.00;100842.91;5035509;28;45471;-70
2023/07/31 08:42:51;;;;;;;;;4.00;4.00;;;;;22.86;52.76;100821.22;5036213;28;45249;-70
2023/07/31 08:45:19;;;;;;;;;6.00;5.00;;;;;22.80;52.14;100828.31;5018355;28;45828;-70
2023/07/31 08:47:49;;;;;;;;;6.25;6.00;;;;;22.89;52.75;100842.44;5035786;28;45325;-70
2023/07/31 08:50:17;;;;;;;;;4.33;3.33;;;;;22.84;52.44;100836.88;5017895;28;45442;-71
2023/07/31 08:52:43;;;;;;;;;3.67;3.67;;;;;22.88;52.31;100841.63;5038748;28;45250;-71
2023/07/31 08:55:09;;;;;;;;;5.33;5.33;;;;;22.66;52.51;100835.75;5021431;28;45479;-70
2023/07/31 08:57:37;;;;;;;;;3.00;3.00;;;;;22.77;53.09;100829.59;5038681;28;46585;-69
2023/07/31 09:00:08;;;;;;;;;5.33;5.33;;;;;22.38;53.06;100760.28;5039296;28;45260;-70
2023/07/31 09:02:45;;;;;;;;;5.00;3.00;;;;;22.77;52.85;100829.59;5039236;28;45234;-70
2023/07/31 09:05:11;;;;;;;;;6.50;4.50;;;;;22.81;52.89;100823.72;5039257;28;45317;-70
2023/07/31 09:07:38;;;;;;;;;4.50;4.50;;;;;22.86;52.99;100824.75;5038813;28;46537;-71
2023/07/31 09:10:04;;;;;;;;;2.00;2.00;;;;;22.75;52.94;100818.13;5038690;28;45302;-71
2023/07/31 09:12:30;;;;;;;;;3.25;3.25;;;;;22.77;53.82;100828.75;5038934;28;45423;-72
2023/07/31 09:15:00;;;;;;;;;4.50;4.50;;;;;22.67;53.68;100834.69;5037678;28;45343;-71
2023/07/31 09:17:32;;;;;;;;;3.50;2.75;;;;;22.83;53.79;100832.50;5038685;28;47376;-70
2023/07/31 09:20:12;;;;;;;;;5.00;3.25;;;;;22.84;53.86;100829.56;5038910;28;45242;-70
2023/07/31 09:22:37;;;;;;;;;4.67;3.67;;;;;22.58;53.37;100775.56;5039255;28;45270;-70
2023/07/31 09:25:23;;;;;;;;;5.00;4.33;;;;;22.81;53.80;100829.13;5039237;28;45355;-71
2023/07/31 09:27:49;;;;;;;;;6.00;5.00;;;;;22.87;53.95;100831.00;5038280;28;45865;-70
2023/07/31 09:30:15;;;;;;;;;6.67;5.67;;;;;22.90;53.54;100825.13;5038725;28;45404;-70
2023/07/31 09:32:40;;;;;;;;;6.67;5.00;;;;;22.87;53.91;100834.53;5039022;28;45381;-71
2023/07/31 09:35:27;;;;;;;;;6.00;6.00;;;;;22.75;55.23;100831.69;5038836;28;45413;-71
2023/07/31 09:37:55;;;;;;;;;14.67;14.67;;;;;22.83;54.46;100825.22;5038647;28;45862;-71
2023/07/31 09:40:31;;;;;;;;;9.33;8.67;;;;;22.69;54.79;100824.44;5038569;28;45596;-70
2023/07/31 09:42:59;;;;;;;;;5.00;5.00;;;;;22.80;54.76;100838.31;5020318;28;45336;-70
2023/07/31 09:45:25;;;;;;;;;4.33;3.33;;;;;22.69;55.75;100839.88;5038477;28;45495;-70
2023/07/31 09:47:51;;;;;;;;;3.67;3.33;;;;;22.71;55.29;100835.91;5036688;28;46525;-70
2023/07/31 09:50:16;;;;;;;;;5.00;5.00;;;;;22.72;55.96;100826.72;5037944;28;45522;-71
2023/07/31 09:52:42;;;;;;;;;4.67;4.67;;;;;22.45;55.66;100760.25;5037811;28;45487;-70
2023/07/31 09:55:09;;;;;;;;;8.00;5.00;;;;;22.77;55.60;100797.06;5037860;28;45590;-70
2023/07/31 09:57:39;;;;;;;;;4.67;4.67;;;;;22.89;55.12;100809.91;5037774;28;46333;-71
2023/07/31 10:00:06;;;;;;;;;4.33;4.33;;;;;22.90;55.60;100828.69;5037528;28;45411;-71
2023/07/31 10:02:32;;;;;;;;;5.67;4.67;;;;;22.94;55.00;100832.59;5036900;28;45445;-71
2023/07/31 10:05:02;;;;;;;;;4.00;4.00;;;;;22.56;55.22;100767.66;5036624;28;45353;-71
2023/07/31 10:07:30;;;;;;;;;5.00;4.33;;;;;22.99;54.81;100815.66;5037665;28;46526;-71
2023/07/31 10:09:59;;;;;;;;;7.33;4.33;;;;;22.94;55.20;100801.94;5037952;28;45388;-70
2023/07/31 10:12:28;;;;;;;;;6.33;4.33;;;;;22.77;54.87;100774.53;5037656;28;45246;-71
2023/07/31 10:14:54;;;;;;;;;7.00;5.00;;;;;22.51;55.03;100747.69;5038119;28;45320;-71
2023/07/31 10:17:22;;;;;;;;;3.33;3.33;;;;;22.78;55.48;100806.00;5037548;28;45849;-71
2023/07/31 10:19:49;;;;;;;;;4.33;4.33;;;;;22.80;55.55;100820.16;5037483;28;45317;-71
2023/07/31 10:22:15;;;;;;;;;5.00;5.00;;;;;22.58;57.44;100805.34;5037878;28;45238;-70
2023/07/31 10:24:43;;;;;;;;;4.50;4.00;;;;;22.62;58.67;100812.81;5038042;28;45506;-70
2023/07/31 10:27:10;;;;;;;;;5.67;5.67;;;;;22.53;59.26;100787.06;5036993;28;45723;-71
2023/07/31 10:29:37;;;;;;;;;4.00;4.00;;;;;22.56;59.89;100797.44;5037620;28;45328;-70
2023/07/31 10:32:06;;;;;;;;;4.00;4.00;;;;;22.58;60.54;100781.81;5037593;28;45498;-71
2023/07/31 10:34:36;;;;;;;;;4.33;3.33;;;;;22.57;60.42;100788.28;5037581;28;45661;-72
2023/07/31 10:37:21;;;;;;;;;5.67;5.67;;;;;22.61;60.34;100797.63;5037346;28;45855;-71
2023/07/31 10:39:59;;;;;;;;;5.00;4.00;;;;;22.63;60.68;100792.81;5037218;28;45471;-70
2023/07/31 10:42:49;;;;;;;;;5.00;4.00;;;;;22.67;60.33;100796.75;5037412;28;45412;-70
2023/07/31 10:45:32;;;;;;;;;6.67;4.33;;;;;22.27;60.08;100722.28;5029522;28;45290;-71
2023/07/31 10:48:00;;;;;;;;;5.33;4.33;;;;;22.25;59.97;100733.34;5037011;28;45745;-72
2023/07/31 10:50:26;;;;;;;;;4.33;4.33;;;;;22.61;60.23;100792.19;5037400;28;45333;-71
2023/07/31 10:52:57;;;;;;;;;5.00;3.67;;;;;22.53;59.75;100757.25;5037145;28;45343;-71
2023/07/31 10:55:40;;;;;;;;;3.00;3.00;;;;;22.58;60.14;100776.38;5035709;28;45250;-71
2023/07/31 10:58:07;;;;;;;;;4.75;4.00;;;;;22.52;60.69;100771.84;5036928;28;46491;-71
2023/07/31 11:00:33;;;;;;;;;3.33;3.33;;;;;22.61;60.52;100789.47;5037132;28;45480;-71
2023/07/31 11:03:01;;;;;;;;;5.33;4.67;;;;;22.31;60.30;100731.63;5037330;28;45362;-71
2023/07/31 11:05:47;;;;;;;;;4.67;4.00;;;;;22.61;60.52;100786.78;5037478;28;45526;-72
2023/07/31 11:08:16;;;;;;;;;4.00;3.00;;;;;22.32;60.05;100741.41;5036699;28;46986;-71
2023/07/31 11:10:43;;;;;;;;;3.00;3.00;;;;;22.50;60.77;100787.50;5037051;28;45227;-74
2023/07/31 11:13:09;;;;;;;;;5.00;5.00;;;;;22.54;61.77;100788.72;5036804;28;45475;-70
2023/07/31 11:15:34;;;;;;;;;5.33;5.33;;;;;22.56;61.48;100772.25;5036851;28;45438;-70
2023/07/31 11:18:03;;;;;;;;;6.67;6.67;;;;;21.94;61.13;100669.19;5036869;28;45947;-71
2023/07/31 11:20:32;;;;;;;;;5.33;4.33;;;;;22.55;60.91;100770.59;5036865;28;45651;-71
2023/07/31 11:23:03;;;;;;;;;4.75;4.50;;;;;22.54;61.77;100767.03;5036836;28;45554;-71